createdAt,value
2023-02-11T00:01:30.920Z,35.17
2023-02-11T00:03:58.808Z,38.63
2023-02-11T00:06:28.294Z,40.05
2023-02-11T00:08:55.912Z,39.20
2023-02-11T00:11:25.597Z,40.35
2023-02-11T00:13:55.200Z,37.63
2023-02-11T00:16:24.931Z,37.20
2023-02-11T00:18:59.537Z,36.92
2023-02-11T00:21:27.492Z,39.45
2023-02-11T00:23:55.069Z,42.17
2023-02-11T00:26:28.853Z,44.25
2023-02-11T00:28:58.640Z,34.72
2023-02-11T00:31:31.086Z,45.20
2023-02-11T00:33:58.276Z,40.50
2023-02-11T01:38:32.547Z,32.80
2023-02-11T01:41:16.127Z,32.63
2023-02-11T01:43:51.597Z,35.10
2023-02-11T01:46:44.165Z,32.60
2023-02-11T02:57:17.652Z,23.02
2023-02-11T03:00:19.259Z,24.10
2023-02-11T03:03:20.331Z,22.38
2023-02-11T03:06:11.270Z,26.73
2023-02-11T03:09:11.459Z,17.95
2023-02-11T03:11:40.177Z,25.02
2023-02-11T03:14:11.210Z,20.98
2023-02-11T04:17:12.648Z,23.80
2023-02-11T04:22:27.259Z,24.05
2023-02-11T04:25:03.015Z,26.25
2023-02-11T04:27:35.858Z,23.20
2023-02-11T04:38:10.597Z,16.50
2023-02-11T04:43:30.300Z,21.90
2023-02-11T04:45:59.245Z,17.25
2023-02-11T04:48:29.456Z,21.05
2023-02-11T04:51:07.626Z,24.02
2023-02-11T04:53:48.159Z,20.65
2023-02-11T04:56:16.799Z,23.27
2023-02-11T05:58:05.072Z,20.63
2023-02-11T06:01:00.272Z,23.98
2023-02-11T06:03:30.722Z,24.40
2023-02-11T06:06:29.107Z,20.77
2023-02-11T06:09:07.653Z,24.77
2023-02-11T06:11:47.947Z,23.27
2023-02-11T06:14:23.905Z,20.08
2023-02-11T07:16:34.554Z,27.00
2023-02-11T07:19:07.889Z,27.58
2023-02-11T07:21:43.593Z,30.33
2023-02-11T07:24:13.172Z,26.25
2023-02-11T07:27:03.384Z,28.30
2023-02-11T07:29:39.887Z,30.55
2023-02-11T08:37:04.687Z,39.95
2023-02-11T08:40:04.719Z,32.20
2023-02-11T08:42:58.161Z,34.75
2023-02-11T08:54:01.668Z,29.40
2023-02-11T09:29:30.405Z,40.45
2023-02-11T09:31:56.885Z,37.03
2023-02-11T09:34:23.419Z,34.33
2023-02-11T09:36:49.827Z,40.10
2023-02-11T09:39:18.805Z,34.13
2023-02-11T09:42:14.788Z,34.58
2023-02-11T09:44:47.131Z,36.50
2023-02-11T09:47:25.464Z,33.38
2023-02-11T09:49:58.831Z,32.10
2023-02-11T09:52:31.300Z,36.40
2023-02-11T09:55:00.542Z,33.75
2023-02-11T09:57:38.057Z,29.05
2023-02-11T10:00:16.984Z,31.98
2023-02-11T10:03:05.105Z,35.35
2023-02-11T10:05:45.906Z,32.15
2023-02-11T10:08:30.399Z,32.65
2023-02-11T10:11:22.607Z,29.90
2023-02-11T10:14:21.451Z,33.20
2023-02-11T10:17:04.434Z,32.72
2023-02-11T10:19:50.066Z,32.90
2023-02-11T10:22:27.170Z,40.72
2023-02-11T10:25:00.091Z,33.58
2023-02-11T10:27:36.232Z,32.97
2023-02-11T10:30:19.137Z,33.88
2023-02-11T10:32:51.315Z,33.25
2023-02-11T10:35:21.615Z,36.00
2023-02-11T10:37:49.067Z,40.75
2023-02-11T10:40:25.828Z,35.17
2023-02-11T10:42:56.022Z,39.63
2023-02-11T10:45:47.570Z,38.80
2023-02-11T10:48:41.680Z,32.42
2023-02-11T10:51:12.793Z,33.47
2023-02-11T10:53:40.898Z,31.10
2023-02-11T10:56:10.813Z,38.00
2023-02-11T10:58:43.869Z,33.90
2023-02-11T11:01:23.960Z,34.70
2023-02-11T11:03:52.686Z,31.75
2023-02-11T11:06:31.482Z,35.17
2023-02-11T11:08:58.129Z,35.63
2023-02-11T11:11:38.597Z,41.10
2023-02-11T11:14:26.090Z,30.95
2023-02-11T11:16:54.468Z,36.65
2023-02-11T11:19:25.453Z,42.10
2023-02-11T11:21:53.763Z,32.45
2023-02-11T11:24:34.425Z,34.42
2023-02-11T11:27:04.103Z,29.75
2023-02-11T11:29:39.604Z,34.75
2023-02-11T11:32:13.085Z,29.05
2023-02-11T11:34:50.693Z,34.67
2023-02-11T11:37:28.805Z,32.08
2023-02-11T11:40:14.949Z,36.28
2023-02-11T11:42:42.107Z,30.73
2023-02-11T11:45:22.835Z,39.17
2023-02-11T11:48:28.730Z,38.53
2023-02-11T11:50:59.777Z,33.00
2023-02-11T11:53:37.217Z,35.53
2023-02-11T11:56:09.706Z,34.47
2023-02-11T11:58:36.178Z,32.03
2023-02-11T12:01:14.699Z,34.60
2023-02-11T12:04:15.042Z,34.92
2023-02-11T12:07:05.577Z,34.20
2023-02-11T12:09:57.244Z,31.40
2023-02-11T12:12:45.824Z,28.48
2023-02-11T12:15:39.662Z,32.67
2023-02-11T12:18:15.738Z,36.72
2023-02-11T12:21:14.339Z,29.40
2023-02-11T12:23:55.618Z,33.58
2023-02-11T12:26:27.509Z,30.88
2023-02-11T12:29:06.006Z,31.45
2023-02-11T12:31:44.728Z,28.35
2023-02-11T12:34:49.374Z,38.28
2023-02-11T12:37:21.493Z,35.95
2023-02-11T12:40:10.105Z,32.15
2023-02-11T12:43:17.545Z,28.00
2023-02-11T12:46:02.321Z,29.20
2023-02-11T12:48:39.480Z,33.70
2023-02-11T12:51:14.428Z,29.05
2023-02-11T12:53:46.787Z,30.20
2023-02-11T12:56:32.508Z,29.25
2023-02-11T12:59:02.124Z,34.13
2023-02-11T13:01:39.485Z,31.98
2023-02-11T13:04:18.830Z,26.88
2023-02-11T13:06:51.791Z,32.72
2023-02-11T13:09:26.974Z,28.58
2023-02-11T13:12:20.094Z,26.83
2023-02-11T13:14:50.068Z,35.15
2023-02-11T13:17:25.437Z,28.60
2023-02-11T13:20:01.044Z,30.48
2023-02-11T13:22:59.219Z,27.67
2023-02-11T13:25:35.917Z,28.45
2023-02-11T13:28:42.299Z,25.60
2023-02-11T13:31:12.622Z,26.80
2023-02-11T13:33:44.285Z,31.05
2023-02-11T13:36:14.695Z,29.67
2023-02-11T13:38:51.076Z,24.75
2023-02-11T13:41:24.695Z,26.45
2023-02-11T13:44:22.542Z,27.42
2023-02-11T13:46:55.902Z,27.13
2023-02-11T13:49:27.934Z,25.58
2023-02-11T13:51:55.604Z,26.05
2023-02-11T13:54:35.543Z,27.40
2023-02-11T13:57:20.328Z,29.10
2023-02-11T14:00:01.501Z,25.35
2023-02-11T14:02:57.083Z,25.02
2023-02-11T14:06:22.615Z,26.40
2023-02-11T14:09:30.443Z,25.33
2023-02-11T14:12:22.012Z,28.85
2023-02-11T14:15:10.502Z,26.75
2023-02-11T14:17:36.877Z,25.73
2023-02-11T14:20:24.679Z,23.45
2023-02-11T14:22:53.464Z,25.60
2023-02-11T14:25:25.238Z,23.90
2023-02-11T14:28:07.986Z,28.55
2023-02-11T14:30:48.641Z,24.02
2023-02-11T14:33:59.660Z,25.83
2023-02-11T14:36:51.705Z,23.95
2023-02-11T14:39:42.298Z,24.40
2023-02-11T14:42:22.387Z,21.17
2023-02-11T14:44:51.511Z,26.10
2023-02-11T14:47:41.268Z,24.50
2023-02-11T14:50:18.725Z,25.05
2023-02-11T14:52:46.983Z,22.92
2023-02-11T14:55:22.575Z,24.98
2023-02-11T14:58:05.480Z,21.25
2023-02-11T15:00:32.212Z,25.67
2023-02-11T15:02:58.739Z,24.70
2023-02-11T15:05:29.221Z,25.52
2023-02-11T15:08:01.918Z,20.90
2023-02-11T15:10:37.249Z,22.60
2023-02-11T15:13:05.061Z,22.92
2023-02-11T15:15:33.026Z,23.15
2023-02-11T15:26:24.026Z,25.23
2023-02-11T15:31:31.771Z,25.75
2023-02-11T15:34:07.087Z,21.85
2023-02-11T15:36:36.199Z,23.20
2023-02-11T15:39:18.013Z,20.75
2023-02-11T15:41:44.634Z,23.35
2023-02-11T15:44:30.721Z,24.48
2023-02-11T15:46:57.362Z,22.25
2023-02-11T15:52:08.159Z,26.48
2023-02-11T15:54:34.658Z,33.60
2023-02-11T15:57:08.301Z,28.02
2023-02-11T15:59:38.587Z,24.52
2023-02-11T16:02:09.392Z,25.70
2023-02-11T16:12:31.454Z,23.33
2023-02-11T16:14:59.928Z,31.08
2023-02-11T16:17:28.312Z,25.42
2023-02-11T16:19:55.025Z,28.10
2023-02-11T16:22:28.878Z,33.30
2023-02-11T16:24:59.164Z,30.27
2023-02-11T16:27:31.514Z,28.08
2023-02-11T16:29:58.463Z,30.83
2023-02-11T16:37:41.423Z,31.08
2023-02-11T16:40:09.201Z,29.40
2023-02-11T16:42:35.601Z,23.27
2023-02-11T16:45:02.120Z,25.52
2023-02-11T16:47:28.956Z,24.08
2023-02-11T16:49:56.421Z,29.35
2023-02-11T16:52:23.601Z,27.90
2023-02-11T16:54:50.651Z,28.20
2023-02-11T16:57:21.328Z,29.00
2023-02-11T16:59:49.296Z,24.52
2023-02-11T17:02:22.303Z,27.25
2023-02-11T17:04:50.824Z,27.42
2023-02-11T17:07:17.258Z,35.63
2023-02-11T17:09:43.811Z,24.92
2023-02-11T17:33:44.756Z,27.17
2023-02-11T17:36:11.372Z,27.40
2023-02-11T17:38:38.116Z,23.85
2023-02-11T17:41:06.263Z,21.33
2023-02-11T17:43:33.071Z,24.83
2023-02-11T17:45:59.620Z,28.70
2023-02-11T17:48:26.214Z,28.05
2023-02-11T17:50:52.636Z,27.88
2023-02-11T18:36:29.472Z,24.70
2023-02-11T18:38:57.999Z,24.67
2023-02-11T18:41:24.455Z,23.67
2023-02-11T18:43:51.009Z,23.88
2023-02-11T18:46:17.775Z,24.45
2023-02-11T18:48:45.054Z,28.90
2023-02-11T18:51:20.521Z,26.15
2023-02-11T18:53:47.257Z,27.13
2023-02-11T18:56:16.503Z,25.27
2023-02-11T18:58:42.988Z,27.77
2023-02-11T19:01:20.836Z,23.83
2023-02-11T19:03:48.262Z,28.48
2023-02-11T19:06:16.432Z,28.42
2023-02-11T19:08:43.248Z,27.70
2023-02-11T19:11:09.878Z,25.50
2023-02-11T19:13:36.493Z,24.13
2023-02-11T19:16:11.216Z,27.20
2023-02-11T19:18:38.688Z,22.93
2023-02-11T19:21:12.295Z,28.38
2023-02-11T19:23:39.698Z,28.70
2023-02-11T19:26:09.919Z,33.00
2023-02-11T19:28:41.984Z,24.95
2023-02-11T19:31:09.607Z,25.40
2023-02-11T19:33:36.282Z,24.45
2023-02-11T19:36:06.814Z,25.00
2023-02-11T19:38:35.954Z,28.05
2023-02-11T19:41:02.416Z,24.65
2023-02-11T19:43:28.917Z,27.20
2023-02-11T19:45:58.457Z,26.27
2023-02-11T19:48:25.693Z,26.88
2023-02-11T19:50:52.672Z,26.13
2023-02-11T19:53:19.130Z,28.67
2023-02-11T19:55:45.675Z,27.70
2023-02-11T19:58:12.230Z,25.63
2023-02-11T20:00:39.096Z,28.13
2023-02-11T20:03:08.666Z,23.50
2023-02-11T20:05:43.198Z,26.45
2023-02-11T20:08:09.725Z,25.25
2023-02-11T20:10:36.154Z,26.25
2023-02-11T20:13:03.861Z,27.45
2023-02-11T20:15:30.754Z,25.50
2023-02-11T20:17:59.683Z,26.38
2023-02-11T20:20:26.112Z,24.17
2023-02-11T20:22:55.837Z,21.63
2023-02-11T20:25:22.320Z,26.02
2023-02-11T20:27:48.710Z,22.33
2023-02-11T20:30:15.382Z,20.10
2023-02-11T20:32:41.835Z,19.90
2023-02-11T20:35:09.074Z,20.02
2023-02-11T20:37:35.631Z,20.65
2023-02-11T20:40:02.055Z,16.88
2023-02-11T20:42:28.478Z,19.92
2023-02-11T20:44:54.898Z,18.30
2023-02-11T20:47:22.690Z,23.42
2023-02-11T20:49:49.429Z,21.15
2023-02-11T20:52:16.047Z,23.98
2023-02-11T20:54:44.970Z,22.30
2023-02-11T20:57:11.522Z,22.83
2023-02-11T20:59:38.227Z,24.52
2023-02-11T21:02:04.721Z,24.20
2023-02-11T21:04:32.577Z,25.83
2023-02-11T21:07:01.491Z,21.20
2023-02-11T21:09:30.734Z,21.33
2023-02-11T21:11:57.474Z,23.67
2023-02-11T21:14:27.582Z,20.92
2023-02-11T21:16:57.529Z,20.80
2023-02-11T21:19:24.125Z,20.80
2023-02-11T21:21:51.112Z,21.20
2023-02-11T21:24:17.760Z,22.20
2023-02-11T21:26:44.510Z,24.05
2023-02-11T21:29:11.871Z,21.98
2023-02-11T21:31:39.174Z,23.35
2023-02-11T21:34:06.832Z,20.25
2023-02-11T21:36:33.627Z,21.17
2023-02-11T21:39:01.691Z,17.52
2023-02-11T21:41:28.075Z,20.17
2023-02-11T21:43:54.713Z,22.20
2023-02-11T21:46:22.165Z,17.73
2023-02-11T21:48:49.083Z,18.45
2023-02-11T21:51:19.295Z,20.17
2023-02-11T21:53:46.493Z,16.35
2023-02-11T21:56:16.919Z,22.10
2023-02-11T21:58:44.396Z,24.52
2023-02-11T22:01:17.074Z,21.35
2023-02-11T22:03:43.871Z,17.27
2023-02-11T22:06:12.880Z,15.30
2023-02-11T22:08:40.330Z,21.50
2023-02-11T22:11:09.928Z,17.83
2023-02-11T22:13:36.690Z,21.02
2023-02-11T22:16:05.816Z,16.58
2023-02-11T22:18:32.434Z,17.95
2023-02-11T22:21:05.600Z,17.48
2023-02-11T22:23:32.805Z,20.67
2023-02-11T22:26:03.314Z,21.67
2023-02-11T22:28:29.948Z,18.00
2023-02-11T22:30:57.226Z,19.50
2023-02-11T22:33:25.456Z,14.98
2023-02-11T22:36:04.486Z,15.27
2023-02-11T22:38:31.959Z,21.63
2023-02-11T22:41:00.198Z,17.17
2023-02-11T22:43:30.406Z,18.70
2023-02-11T22:46:00.861Z,17.98
2023-02-11T22:48:27.353Z,17.23
2023-02-11T22:50:53.962Z,20.58
2023-02-11T22:53:20.543Z,20.65
2023-02-11T22:55:46.927Z,20.73
2023-02-11T22:58:13.439Z,19.02
2023-02-11T23:00:42.036Z,17.25
2023-02-11T23:03:10.283Z,19.10
2023-02-11T23:05:41.455Z,21.95
2023-02-11T23:08:10.611Z,18.55
2023-02-11T23:10:38.434Z,19.92
2023-02-11T23:13:06.650Z,20.02
2023-02-11T23:15:34.047Z,15.30
2023-02-11T23:18:00.458Z,19.10
2023-02-11T23:20:26.908Z,22.02
2023-02-11T23:22:53.656Z,21.58
2023-02-11T23:25:23.316Z,18.45
2023-02-11T23:27:49.768Z,18.25
2023-02-11T23:30:16.467Z,20.60
2023-02-11T23:32:42.843Z,20.35
2023-02-11T23:35:09.305Z,17.95
2023-02-11T23:37:35.811Z,18.30
2023-02-11T23:40:02.372Z,19.05
2023-02-11T23:42:29.152Z,18.15
2023-02-11T23:44:55.577Z,22.08
2023-02-11T23:47:22.073Z,17.67
2023-02-11T23:49:48.497Z,21.40
2023-02-11T23:52:15.058Z,22.05
2023-02-11T23:54:43.726Z,24.40
2023-02-11T23:57:10.180Z,22.05
2023-02-11T23:59:36.606Z,18.08
